sensor_id;sensor_type;location;lat;lon;timestamp;P1;durP1;ratioP1;P2;durP2;ratioP2
39020;SDS011;25188;51.958;5.842;2023-11-19T00:00:35;16.63;;;11.93;;
39020;SDS011;25188;51.958;5.842;2023-11-19T00:03:01;16.48;;;13.18;;
39020;SDS011;25188;51.958;5.842;2023-11-19T00:05:27;17.20;;;13.43;;
39020;SDS011;25188;51.958;5.842;2023-11-19T00:07:52;17.90;;;14.65;;
39020;SDS011;25188;51.958;5.842;2023-11-19T00:10:18;18.20;;;14.30;;
39020;SDS011;25188;51.958;5.842;2023-11-19T00:12:45;17.30;;;14.07;;
39020;SDS011;25188;51.958;5.842;2023-11-19T00:15:15;19.60;;;13.52;;
39020;SDS011;25188;51.958;5.842;2023-11-19T00:17:44;20.23;;;14.93;;
39020;SDS011;25188;51.958;5.842;2023-11-19T00:20:13;18.55;;;13.05;;
39020;SDS011;25188;51.958;5.842;2023-11-19T00:22:42;16.60;;;12.38;;
39020;SDS011;25188;51.958;5.842;2023-11-19T00:25:10;14.13;;;12.27;;
39020;SDS011;25188;51.958;5.842;2023-11-19T00:27:36;17.95;;;11.95;;
39020;SDS011;25188;51.958;5.842;2023-11-19T00:30:03;17.08;;;12.65;;
39020;SDS011;25188;51.958;5.842;2023-11-19T00:32:34;17.85;;;11.10;;
39020;SDS011;25188;51.958;5.842;2023-11-19T00:35:01;15.80;;;11.68;;
39020;SDS011;25188;51.958;5.842;2023-11-19T00:37:27;14.57;;;10.43;;
39020;SDS011;25188;51.958;5.842;2023-11-19T00:39:53;15.20;;;8.73;;
39020;SDS011;25188;51.958;5.842;2023-11-19T00:42:21;19.17;;;9.98;;
39020;SDS011;25188;51.958;5.842;2023-11-19T00:44:47;22.75;;;10.52;;
39020;SDS011;25188;51.958;5.842;2023-11-19T00:47:13;18.27;;;9.60;;
39020;SDS011;25188;51.958;5.842;2023-11-19T00:49:38;14.25;;;8.25;;
39020;SDS011;25188;51.958;5.842;2023-11-19T00:52:04;11.65;;;6.88;;
39020;SDS011;25188;51.958;5.842;2023-11-19T00:54:31;14.63;;;7.40;;
39020;SDS011;25188;51.958;5.842;2023-11-19T00:56:57;14.00;;;7.40;;
39020;SDS011;25188;51.958;5.842;2023-11-19T00:59:22;17.92;;;7.82;;
39020;SDS011;25188;51.958;5.842;2023-11-19T01:01:49;13.95;;;6.88;;
39020;SDS011;25188;51.958;5.842;2023-11-19T01:04:16;20.48;;;7.18;;
39020;SDS011;25188;51.958;5.842;2023-11-19T01:06:42;20.80;;;7.18;;
39020;SDS011;25188;51.958;5.842;2023-11-19T01:09:08;16.88;;;6.05;;
39020;SDS011;25188;51.958;5.842;2023-11-19T01:11:34;21.77;;;6.32;;
39020;SDS011;25188;51.958;5.842;2023-11-19T01:14:00;18.63;;;6.28;;
39020;SDS011;25188;51.958;5.842;2023-11-19T01:16:26;17.08;;;5.28;;
39020;SDS011;25188;51.958;5.842;2023-11-19T01:18:52;19.15;;;6.07;;
39020;SDS011;25188;51.958;5.842;2023-11-19T01:21:17;20.73;;;5.47;;
39020;SDS011;25188;51.958;5.842;2023-11-19T01:23:43;17.17;;;4.25;;
39020;SDS011;25188;51.958;5.842;2023-11-19T01:26:10;21.65;;;5.13;;
39020;SDS011;25188;51.958;5.842;2023-11-19T01:28:37;18.17;;;4.60;;
39020;SDS011;25188;51.958;5.842;2023-11-19T01:31:04;18.85;;;4.68;;
39020;SDS011;25188;51.958;5.842;2023-11-19T01:33:33;18.52;;;4.78;;
39020;SDS011;25188;51.958;5.842;2023-11-19T01:36:01;22.73;;;5.20;;
39020;SDS011;25188;51.958;5.842;2023-11-19T01:38:26;17.85;;;4.97;;
39020;SDS011;25188;51.958;5.842;2023-11-19T01:40:55;18.02;;;4.47;;
39020;SDS011;25188;51.958;5.842;2023-11-19T01:45:58;21.92;;;5.20;;
39020;SDS011;25188;51.958;5.842;2023-11-19T01:48:24;23.30;;;4.85;;
39020;SDS011;25188;51.958;5.842;2023-11-19T01:50:50;20.55;;;4.38;;
39020;SDS011;25188;51.958;5.842;2023-11-19T01:53:17;21.77;;;4.47;;
39020;SDS011;25188;51.958;5.842;2023-11-19T01:55:43;22.50;;;4.35;;
39020;SDS011;25188;51.958;5.842;2023-11-19T01:58:09;18.40;;;4.28;;
39020;SDS011;25188;51.958;5.842;2023-11-19T02:00:35;26.33;;;4.22;;
39020;SDS011;25188;51.958;5.842;2023-11-19T02:03:00;23.83;;;4.45;;
39020;SDS011;25188;51.958;5.842;2023-11-19T02:05:27;16.75;;;4.30;;
39020;SDS011;25188;51.958;5.842;2023-11-19T02:07:53;14.27;;;3.30;;
39020;SDS011;25188;51.958;5.842;2023-11-19T02:10:19;23.35;;;3.75;;
39020;SDS011;25188;51.958;5.842;2023-11-19T02:12:44;27.15;;;4.50;;
39020;SDS011;25188;51.958;5.842;2023-11-19T02:15:11;17.90;;;4.25;;
39020;SDS011;25188;51.958;5.842;2023-11-19T02:17:37;27.88;;;3.90;;
39020;SDS011;25188;51.958;5.842;2023-11-19T02:20:06;23.10;;;4.45;;
39020;SDS011;25188;51.958;5.842;2023-11-19T02:25:11;19.60;;;3.92;;
39020;SDS011;25188;51.958;5.842;2023-11-19T02:30:22;27.73;;;4.10;;
39020;SDS011;25188;51.958;5.842;2023-11-19T02:32:54;25.92;;;4.03;;
39020;SDS011;25188;51.958;5.842;2023-11-19T02:35:22;17.77;;;3.47;;
39020;SDS011;25188;51.958;5.842;2023-11-19T02:37:49;22.30;;;4.07;;
39020;SDS011;25188;51.958;5.842;2023-11-19T02:40:14;29.23;;;4.10;;
39020;SDS011;25188;51.958;5.842;2023-11-19T02:42:40;27.58;;;4.35;;
39020;SDS011;25188;51.958;5.842;2023-11-19T02:45:07;28.35;;;3.95;;
39020;SDS011;25188;51.958;5.842;2023-11-19T02:47:33;36.47;;;5.43;;
39020;SDS011;25188;51.958;5.842;2023-11-19T02:49:59;31.00;;;4.97;;
39020;SDS011;25188;51.958;5.842;2023-11-19T02:52:25;30.60;;;4.53;;
39020;SDS011;25188;51.958;5.842;2023-11-19T02:54:51;31.63;;;5.93;;
39020;SDS011;25188;51.958;5.842;2023-11-19T02:57:17;28.20;;;4.75;;
39020;SDS011;25188;51.958;5.842;2023-11-19T02:59:46;34.50;;;6.00;;
39020;SDS011;25188;51.958;5.842;2023-11-19T03:02:11;32.28;;;6.00;;
39020;SDS011;25188;51.958;5.842;2023-11-19T03:04:37;27.95;;;5.63;;
39020;SDS011;25188;51.958;5.842;2023-11-19T03:07:07;28.75;;;5.50;;
39020;SDS011;25188;51.958;5.842;2023-11-19T03:09:33;26.80;;;5.15;;
39020;SDS011;25188;51.958;5.842;2023-11-19T03:12:00;27.42;;;4.30;;
39020;SDS011;25188;51.958;5.842;2023-11-19T03:14:27;34.78;;;5.13;;
39020;SDS011;25188;51.958;5.842;2023-11-19T03:16:52;31.00;;;5.05;;
39020;SDS011;25188;51.958;5.842;2023-11-19T03:19:18;28.48;;;5.55;;
39020;SDS011;25188;51.958;5.842;2023-11-19T03:21:44;34.33;;;5.60;;
39020;SDS011;25188;51.958;5.842;2023-11-19T03:24:10;35.67;;;5.75;;
39020;SDS011;25188;51.958;5.842;2023-11-19T03:26:38;41.13;;;6.80;;
39020;SDS011;25188;51.958;5.842;2023-11-19T03:29:04;36.00;;;6.75;;
39020;SDS011;25188;51.958;5.842;2023-11-19T03:31:29;35.65;;;5.75;;
39020;SDS011;25188;51.958;5.842;2023-11-19T03:33:55;39.47;;;7.25;;
39020;SDS011;25188;51.958;5.842;2023-11-19T03:36:21;35.65;;;6.18;;
39020;SDS011;25188;51.958;5.842;2023-11-19T03:38:47;30.83;;;5.57;;
39020;SDS011;25188;51.958;5.842;2023-11-19T03:41:13;34.83;;;5.53;;
39020;SDS011;25188;51.958;5.842;2023-11-19T03:43:39;37.97;;;6.63;;
39020;SDS011;25188;51.958;5.842;2023-11-19T03:46:18;34.33;;;6.03;;
39020;SDS011;25188;51.958;5.842;2023-11-19T03:48:46;36.45;;;6.53;;
39020;SDS011;25188;51.958;5.842;2023-11-19T03:51:12;40.08;;;6.55;;
39020;SDS011;25188;51.958;5.842;2023-11-19T03:53:41;36.42;;;5.47;;
39020;SDS011;25188;51.958;5.842;2023-11-19T03:56:08;34.30;;;5.53;;
39020;SDS011;25188;51.958;5.842;2023-11-19T03:58:35;34.88;;;6.15;;
39020;SDS011;25188;51.958;5.842;2023-11-19T04:01:01;33.05;;;6.15;;
39020;SDS011;25188;51.958;5.842;2023-11-19T04:03:27;39.67;;;7.18;;
39020;SDS011;25188;51.958;5.842;2023-11-19T04:05:53;35.10;;;7.00;;
39020;SDS011;25188;51.958;5.842;2023-11-19T04:08:18;32.72;;;5.25;;
39020;SDS011;25188;51.958;5.842;2023-11-19T04:10:44;51.90;;;7.00;;
39020;SDS011;25188;51.958;5.842;2023-11-19T04:13:10;40.15;;;6.55;;
39020;SDS011;25188;51.958;5.842;2023-11-19T04:15:36;40.55;;;5.40;;
39020;SDS011;25188;51.958;5.842;2023-11-19T04:18:01;31.35;;;6.30;;
39020;SDS011;25188;51.958;5.842;2023-11-19T04:20:27;46.22;;;6.20;;
39020;SDS011;25188;51.958;5.842;2023-11-19T04:22:53;35.58;;;4.93;;
39020;SDS011;25188;51.958;5.842;2023-11-19T04:25:18;42.88;;;6.35;;
39020;SDS011;25188;51.958;5.842;2023-11-19T04:27:44;37.13;;;6.63;;
39020;SDS011;25188;51.958;5.842;2023-11-19T04:30:11;40.67;;;6.25;;
39020;SDS011;25188;51.958;5.842;2023-11-19T04:32:37;38.13;;;5.82;;
39020;SDS011;25188;51.958;5.842;2023-11-19T04:35:03;35.28;;;5.25;;
39020;SDS011;25188;51.958;5.842;2023-11-19T04:37:29;33.40;;;5.20;;
39020;SDS011;25188;51.958;5.842;2023-11-19T04:39:54;38.95;;;6.57;;
39020;SDS011;25188;51.958;5.842;2023-11-19T04:42:23;49.50;;;7.18;;
39020;SDS011;25188;51.958;5.842;2023-11-19T04:44:49;41.38;;;7.38;;
39020;SDS011;25188;51.958;5.842;2023-11-19T04:47:15;43.03;;;6.82;;
39020;SDS011;25188;51.958;5.842;2023-11-19T04:49:40;43.33;;;6.88;;
39020;SDS011;25188;51.958;5.842;2023-11-19T04:52:09;35.10;;;6.05;;
39020;SDS011;25188;51.958;5.842;2023-11-19T04:54:40;41.70;;;6.32;;
39020;SDS011;25188;51.958;5.842;2023-11-19T04:57:07;37.47;;;6.50;;
39020;SDS011;25188;51.958;5.842;2023-11-19T04:59:34;40.72;;;6.47;;
39020;SDS011;25188;51.958;5.842;2023-11-19T05:02:00;40.97;;;7.72;;
39020;SDS011;25188;51.958;5.842;2023-11-19T05:04:26;49.80;;;7.72;;
39020;SDS011;25188;51.958;5.842;2023-11-19T05:06:51;29.95;;;5.97;;
39020;SDS011;25188;51.958;5.842;2023-11-19T05:09:18;59.60;;;8.30;;
39020;SDS011;25188;51.958;5.842;2023-11-19T05:11:44;37.28;;;6.28;;
39020;SDS011;25188;51.958;5.842;2023-11-19T05:14:09;27.70;;;5.05;;
39020;SDS011;25188;51.958;5.842;2023-11-19T05:16:35;39.83;;;4.97;;
39020;SDS011;25188;51.958;5.842;2023-11-19T05:19:01;33.10;;;4.97;;
39020;SDS011;25188;51.958;5.842;2023-11-19T05:21:26;45.95;;;6.22;;
39020;SDS011;25188;51.958;5.842;2023-11-19T05:23:52;34.55;;;5.75;;
39020;SDS011;25188;51.958;5.842;2023-11-19T05:26:19;41.55;;;6.32;;
39020;SDS011;25188;51.958;5.842;2023-11-19T05:28:46;48.08;;;6.30;;
39020;SDS011;25188;51.958;5.842;2023-11-19T05:31:12;38.05;;;7.30;;
39020;SDS011;25188;51.958;5.842;2023-11-19T05:33:38;43.22;;;8.43;;
39020;SDS011;25188;51.958;5.842;2023-11-19T05:36:04;41.42;;;7.00;;
39020;SDS011;25188;51.958;5.842;2023-11-19T05:38:30;38.97;;;5.85;;
39020;SDS011;25188;51.958;5.842;2023-11-19T05:40:56;38.08;;;6.70;;
39020;SDS011;25188;51.958;5.842;2023-11-19T05:43:22;34.88;;;6.88;;
39020;SDS011;25188;51.958;5.842;2023-11-19T05:45:47;37.47;;;6.68;;
39020;SDS011;25188;51.958;5.842;2023-11-19T05:48:13;39.22;;;5.63;;
39020;SDS011;25188;51.958;5.842;2023-11-19T05:50:39;41.40;;;5.80;;
39020;SDS011;25188;51.958;5.842;2023-11-19T05:53:04;32.50;;;5.25;;
39020;SDS011;25188;51.958;5.842;2023-11-19T05:55:38;40.38;;;6.88;;
39020;SDS011;25188;51.958;5.842;2023-11-19T05:58:11;40.28;;;6.40;;
39020;SDS011;25188;51.958;5.842;2023-11-19T06:00:38;37.63;;;6.07;;
39020;SDS011;25188;51.958;5.842;2023-11-19T06:03:05;34.63;;;5.45;;
39020;SDS011;25188;51.958;5.842;2023-11-19T06:05:32;36.88;;;6.60;;
39020;SDS011;25188;51.958;5.842;2023-11-19T06:07:58;49.53;;;8.45;;
39020;SDS011;25188;51.958;5.842;2023-11-19T06:10:24;44.15;;;7.93;;
39020;SDS011;25188;51.958;5.842;2023-11-19T06:12:55;43.17;;;6.53;;
39020;SDS011;25188;51.958;5.842;2023-11-19T06:15:24;41.00;;;6.93;;
39020;SDS011;25188;51.958;5.842;2023-11-19T06:17:51;49.25;;;6.97;;
39020;SDS011;25188;51.958;5.842;2023-11-19T06:20:17;41.65;;;7.72;;
39020;SDS011;25188;51.958;5.842;2023-11-19T06:22:44;48.40;;;8.73;;
39020;SDS011;25188;51.958;5.842;2023-11-19T06:25:11;52.72;;;7.63;;
39020;SDS011;25188;51.958;5.842;2023-11-19T06:27:37;35.78;;;6.47;;
39020;SDS011;25188;51.958;5.842;2023-11-19T06:30:03;44.75;;;7.45;;
39020;SDS011;25188;51.958;5.842;2023-11-19T06:32:29;37.47;;;5.95;;
39020;SDS011;25188;51.958;5.842;2023-11-19T06:34:54;41.85;;;7.68;;
39020;SDS011;25188;51.958;5.842;2023-11-19T06:37:21;35.95;;;6.10;;
39020;SDS011;25188;51.958;5.842;2023-11-19T06:39:47;41.35;;;8.07;;
39020;SDS011;25188;51.958;5.842;2023-11-19T06:42:12;39.97;;;6.53;;
39020;SDS011;25188;51.958;5.842;2023-11-19T06:44:38;41.15;;;7.55;;
39020;SDS011;25188;51.958;5.842;2023-11-19T06:47:04;44.03;;;7.32;;
39020;SDS011;25188;51.958;5.842;2023-11-19T06:49:30;43.47;;;7.22;;
39020;SDS011;25188;51.958;5.842;2023-11-19T06:51:55;37.83;;;5.22;;
39020;SDS011;25188;51.958;5.842;2023-11-19T06:54:21;48.15;;;7.13;;
39020;SDS011;25188;51.958;5.842;2023-11-19T06:56:48;39.95;;;6.20;;
39020;SDS011;25188;51.958;5.842;2023-11-19T06:59:14;35.08;;;6.85;;
39020;SDS011;25188;51.958;5.842;2023-11-19T07:01:39;37.50;;;5.65;;
39020;SDS011;25188;51.958;5.842;2023-11-19T07:04:10;53.25;;;8.05;;
39020;SDS011;25188;51.958;5.842;2023-11-19T07:06:37;40.25;;;6.47;;
39020;SDS011;25188;51.958;5.842;2023-11-19T07:09:05;39.72;;;6.82;;
39020;SDS011;25188;51.958;5.842;2023-11-19T07:11:37;42.60;;;7.00;;
39020;SDS011;25188;51.958;5.842;2023-11-19T07:14:04;44.10;;;7.20;;
39020;SDS011;25188;51.958;5.842;2023-11-19T07:16:31;41.03;;;6.85;;
39020;SDS011;25188;51.958;5.842;2023-11-19T07:18:59;36.40;;;5.80;;
39020;SDS011;25188;51.958;5.842;2023-11-19T07:21:28;34.97;;;6.43;;
39020;SDS011;25188;51.958;5.842;2023-11-19T07:23:57;49.50;;;8.15;;
39020;SDS011;25188;51.958;5.842;2023-11-19T07:26:22;39.63;;;6.47;;
39020;SDS011;25188;51.958;5.842;2023-11-19T07:28:51;34.97;;;5.78;;
39020;SDS011;25188;51.958;5.842;2023-11-19T07:31:18;47.72;;;6.93;;
39020;SDS011;25188;51.958;5.842;2023-11-19T07:33:44;42.47;;;6.63;;
39020;SDS011;25188;51.958;5.842;2023-11-19T07:36:11;36.55;;;6.43;;
39020;SDS011;25188;51.958;5.842;2023-11-19T07:38:37;36.95;;;6.07;;
39020;SDS011;25188;51.958;5.842;2023-11-19T07:41:03;44.15;;;6.90;;
39020;SDS011;25188;51.958;5.842;2023-11-19T07:43:35;39.00;;;5.55;;
39020;SDS011;25188;51.958;5.842;2023-11-19T07:46:00;39.63;;;6.65;;
39020;SDS011;25188;51.958;5.842;2023-11-19T07:48:26;36.13;;;6.97;;
39020;SDS011;25188;51.958;5.842;2023-11-19T07:50:53;36.88;;;6.13;;
39020;SDS011;25188;51.958;5.842;2023-11-19T07:53:19;35.97;;;6.18;;
39020;SDS011;25188;51.958;5.842;2023-11-19T07:55:45;46.22;;;7.20;;
39020;SDS011;25188;51.958;5.842;2023-11-19T07:58:11;36.90;;;6.25;;
39020;SDS011;25188;51.958;5.842;2023-11-19T08:00:37;39.28;;;6.60;;
39020;SDS011;25188;51.958;5.842;2023-11-19T08:03:03;40.38;;;6.45;;
39020;SDS011;25188;51.958;5.842;2023-11-19T08:05:30;31.35;;;5.80;;
39020;SDS011;25188;51.958;5.842;2023-11-19T08:07:56;46.70;;;7.45;;
39020;SDS011;25188;51.958;5.842;2023-11-19T08:10:22;39.00;;;5.25;;
39020;SDS011;25188;51.958;5.842;2023-11-19T08:12:47;40.08;;;6.18;;
39020;SDS011;25188;51.958;5.842;2023-11-19T08:15:13;42.67;;;6.80;;
39020;SDS011;25188;51.958;5.842;2023-11-19T08:17:40;45.38;;;6.30;;
39020;SDS011;25188;51.958;5.842;2023-11-19T08:20:05;30.55;;;5.35;;
39020;SDS011;25188;51.958;5.842;2023-11-19T08:22:35;39.88;;;6.13;;
39020;SDS011;25188;51.958;5.842;2023-11-19T08:25:01;36.20;;;6.35;;
39020;SDS011;25188;51.958;5.842;2023-11-19T08:27:27;30.80;;;5.40;;
39020;SDS011;25188;51.958;5.842;2023-11-19T08:29:53;39.70;;;5.97;;
39020;SDS011;25188;51.958;5.842;2023-11-19T08:32:23;42.15;;;7.22;;
39020;SDS011;25188;51.958;5.842;2023-11-19T08:34:49;39.60;;;6.22;;
39020;SDS011;25188;51.958;5.842;2023-11-19T08:37:15;39.58;;;6.55;;
39020;SDS011;25188;51.958;5.842;2023-11-19T08:39:43;35.45;;;5.03;;
39020;SDS011;25188;51.958;5.842;2023-11-19T08:42:08;36.03;;;6.00;;
39020;SDS011;25188;51.958;5.842;2023-11-19T08:44:34;34.88;;;6.15;;
39020;SDS011;25188;51.958;5.842;2023-11-19T08:47:00;38.80;;;5.38;;
39020;SDS011;25188;51.958;5.842;2023-11-19T08:49:26;40.97;;;6.05;;
39020;SDS011;25188;51.958;5.842;2023-11-19T08:51:51;37.80;;;5.32;;
39020;SDS011;25188;51.958;5.842;2023-11-19T08:54:17;40.58;;;6.55;;
39020;SDS011;25188;51.958;5.842;2023-11-19T08:56:45;32.92;;;5.47;;
39020;SDS011;25188;51.958;5.842;2023-11-19T08:59:10;30.58;;;5.57;;
39020;SDS011;25188;51.958;5.842;2023-11-19T09:01:36;39.83;;;5.63;;
39020;SDS011;25188;51.958;5.842;2023-11-19T09:04:02;35.88;;;6.65;;
39020;SDS011;25188;51.958;5.842;2023-11-19T09:06:27;41.95;;;6.13;;
39020;SDS011;25188;51.958;5.842;2023-11-19T09:08:53;27.45;;;4.35;;
39020;SDS011;25188;51.958;5.842;2023-11-19T09:11:23;30.85;;;5.55;;
39020;SDS011;25188;51.958;5.842;2023-11-19T09:13:49;28.65;;;5.90;;
39020;SDS011;25188;51.958;5.842;2023-11-19T09:16:15;32.80;;;6.38;;
39020;SDS011;25188;51.958;5.842;2023-11-19T09:18:41;29.15;;;4.28;;
39020;SDS011;25188;51.958;5.842;2023-11-19T09:21:07;40.92;;;5.63;;
39020;SDS011;25188;51.958;5.842;2023-11-19T09:23:32;30.42;;;5.25;;
39020;SDS011;25188;51.958;5.842;2023-11-19T09:26:04;29.23;;;6.53;;
39020;SDS011;25188;51.958;5.842;2023-11-19T09:28:30;37.33;;;5.68;;
39020;SDS011;25188;51.958;5.842;2023-11-19T09:30:56;35.90;;;5.60;;
39020;SDS011;25188;51.958;5.842;2023-11-19T09:33:21;32.85;;;5.57;;
39020;SDS011;25188;51.958;5.842;2023-11-19T09:35:47;37.63;;;6.03;;
39020;SDS011;25188;51.958;5.842;2023-11-19T09:38:14;41.83;;;5.65;;
39020;SDS011;25188;51.958;5.842;2023-11-19T09:40:40;36.35;;;5.78;;
39020;SDS011;25188;51.958;5.842;2023-11-19T09:43:06;33.83;;;5.32;;
39020;SDS011;25188;51.958;5.842;2023-11-19T09:45:35;31.58;;;5.43;;
39020;SDS011;25188;51.958;5.842;2023-11-19T09:48:13;29.80;;;3.92;;
39020;SDS011;25188;51.958;5.842;2023-11-19T09:50:41;34.33;;;4.63;;
39020;SDS011;25188;51.958;5.842;2023-11-19T09:53:07;32.78;;;5.95;;
39020;SDS011;25188;51.958;5.842;2023-11-19T09:55:33;30.25;;;4.82;;
39020;SDS011;25188;51.958;5.842;2023-11-19T09:57:59;34.88;;;5.93;;
39020;SDS011;25188;51.958;5.842;2023-11-19T10:00:26;28.77;;;5.65;;
39020;SDS011;25188;51.958;5.842;2023-11-19T10:02:52;32.33;;;4.85;;
39020;SDS011;25188;51.958;5.842;2023-11-19T10:05:20;32.47;;;6.25;;
39020;SDS011;25188;51.958;5.842;2023-11-19T10:07:48;23.70;;;4.70;;
39020;SDS011;25188;51.958;5.842;2023-11-19T10:10:14;30.52;;;5.68;;
39020;SDS011;25188;51.958;5.842;2023-11-19T10:12:43;34.20;;;5.55;;
39020;SDS011;25188;51.958;5.842;2023-11-19T10:15:20;37.58;;;5.20;;
39020;SDS011;25188;51.958;5.842;2023-11-19T10:17:47;29.42;;;5.40;;
39020;SDS011;25188;51.958;5.842;2023-11-19T10:20:13;34.70;;;5.50;;
39020;SDS011;25188;51.958;5.842;2023-11-19T10:22:39;37.22;;;6.20;;
39020;SDS011;25188;51.958;5.842;2023-11-19T10:25:08;37.30;;;6.90;;
39020;SDS011;25188;51.958;5.842;2023-11-19T10:27:50;31.42;;;5.47;;
39020;SDS011;25188;51.958;5.842;2023-11-19T10:30:17;34.28;;;6.45;;
39020;SDS011;25188;51.958;5.842;2023-11-19T10:33:02;39.35;;;5.60;;
39020;SDS011;25188;51.958;5.842;2023-11-19T10:37:58;29.75;;;5.13;;
39020;SDS011;25188;51.958;5.842;2023-11-19T10:40:37;28.90;;;5.35;;
39020;SDS011;25188;51.958;5.842;2023-11-19T10:43:05;28.77;;;4.40;;
39020;SDS011;25188;51.958;5.842;2023-11-19T10:45:32;29.10;;;5.03;;
39020;SDS011;25188;51.958;5.842;2023-11-19T10:47:59;28.35;;;5.40;;
39020;SDS011;25188;51.958;5.842;2023-11-19T10:50:25;25.83;;;4.55;;
39020;SDS011;25188;51.958;5.842;2023-11-19T10:52:55;26.95;;;5.15;;
39020;SDS011;25188;51.958;5.842;2023-11-19T10:55:28;26.40;;;5.20;;
39020;SDS011;25188;51.958;5.842;2023-11-19T10:57:59;17.00;;;4.07;;
39020;SDS011;25188;51.958;5.842;2023-11-19T11:00:50;26.02;;;5.13;;
39020;SDS011;25188;51.958;5.842;2023-11-19T11:03:20;21.58;;;5.45;;
39020;SDS011;25188;51.958;5.842;2023-11-19T11:05:48;19.85;;;4.07;;
39020;SDS011;25188;51.958;5.842;2023-11-19T11:08:15;28.42;;;5.93;;
39020;SDS011;25188;51.958;5.842;2023-11-19T11:10:44;24.58;;;4.15;;
39020;SDS011;25188;51.958;5.842;2023-11-19T11:13:13;23.58;;;4.05;;
39020;SDS011;25188;51.958;5.842;2023-11-19T11:15:39;24.13;;;5.78;;
39020;SDS011;25188;51.958;5.842;2023-11-19T11:18:08;26.08;;;4.32;;
39020;SDS011;25188;51.958;5.842;2023-11-19T11:20:34;21.65;;;4.43;;
39020;SDS011;25188;51.958;5.842;2023-11-19T11:23:06;20.33;;;4.43;;
39020;SDS011;25188;51.958;5.842;2023-11-19T11:36:31;26.80;;;5.20;;
39020;SDS011;25188;51.958;5.842;2023-11-19T11:39:10;28.25;;;4.72;;
39020;SDS011;25188;51.958;5.842;2023-11-19T11:41:36;29.05;;;5.53;;
39020;SDS011;25188;51.958;5.842;2023-11-19T11:44:02;29.10;;;5.13;;
39020;SDS011;25188;51.958;5.842;2023-11-19T11:49:02;24.58;;;4.50;;
39020;SDS011;25188;51.958;5.842;2023-11-19T11:56:37;26.50;;;4.95;;
39020;SDS011;25188;51.958;5.842;2023-11-19T11:59:03;27.35;;;4.75;;
39020;SDS011;25188;51.958;5.842;2023-11-19T12:01:59;28.13;;;4.60;;
39020;SDS011;25188;51.958;5.842;2023-11-19T12:04:28;32.03;;;4.65;;
39020;SDS011;25188;51.958;5.842;2023-11-19T12:07:06;26.80;;;4.88;;
39020;SDS011;25188;51.958;5.842;2023-11-19T12:09:38;26.52;;;4.95;;
39020;SDS011;25188;51.958;5.842;2023-11-19T12:17:56;20.20;;;4.25;;
39020;SDS011;25188;51.958;5.842;2023-11-19T12:20:16;16.85;;;2.60;;
39020;SDS011;25188;51.958;5.842;2023-11-19T12:22:44;20.25;;;3.05;;
39020;SDS011;25188;51.958;5.842;2023-11-19T12:25:11;19.27;;;3.65;;
39020;SDS011;25188;51.958;5.842;2023-11-19T12:27:44;18.73;;;3.88;;
39020;SDS011;25188;51.958;5.842;2023-11-19T12:30:17;16.38;;;3.38;;
39020;SDS011;25188;51.958;5.842;2023-11-19T12:32:50;20.80;;;4.10;;
39020;SDS011;25188;51.958;5.842;2023-11-19T12:35:18;18.88;;;3.15;;
39020;SDS011;25188;51.958;5.842;2023-11-19T12:37:48;19.13;;;4.05;;
39020;SDS011;25188;51.958;5.842;2023-11-19T12:40:25;15.10;;;3.67;;
39020;SDS011;25188;51.958;5.842;2023-11-19T12:42:51;11.77;;;2.53;;
39020;SDS011;25188;51.958;5.842;2023-11-19T12:45:18;14.25;;;3.63;;
39020;SDS011;25188;51.958;5.842;2023-11-19T12:47:45;15.77;;;3.60;;
39020;SDS011;25188;51.958;5.842;2023-11-19T12:50:14;17.38;;;3.50;;
39020;SDS011;25188;51.958;5.842;2023-11-19T12:52:43;18.85;;;3.67;;
39020;SDS011;25188;51.958;5.842;2023-11-19T12:55:27;15.55;;;3.80;;
39020;SDS011;25188;51.958;5.842;2023-11-19T12:57:55;15.23;;;3.40;;
39020;SDS011;25188;51.958;5.842;2023-11-19T13:00:21;14.95;;;3.35;;
39020;SDS011;25188;51.958;5.842;2023-11-19T13:02:48;17.98;;;3.33;;
39020;SDS011;25188;51.958;5.842;2023-11-19T13:05:32;19.92;;;3.60;;
39020;SDS011;25188;51.958;5.842;2023-11-19T13:10:27;16.17;;;3.80;;
39020;SDS011;25188;51.958;5.842;2023-11-19T13:13:07;15.77;;;3.38;;
39020;SDS011;25188;51.958;5.842;2023-11-19T13:15:33;19.08;;;4.05;;
39020;SDS011;25188;51.958;5.842;2023-11-19T13:18:00;19.90;;;4.00;;
39020;SDS011;25188;51.958;5.842;2023-11-19T13:20:27;25.67;;;5.05;;
39020;SDS011;25188;51.958;5.842;2023-11-19T13:23:03;20.42;;;4.75;;
39020;SDS011;25188;51.958;5.842;2023-11-19T13:25:30;18.85;;;3.67;;
39020;SDS011;25188;51.958;5.842;2023-11-19T13:27:57;19.98;;;4.22;;
39020;SDS011;25188;51.958;5.842;2023-11-19T13:30:23;20.00;;;4.70;;
39020;SDS011;25188;51.958;5.842;2023-11-19T13:32:50;23.38;;;4.05;;
39020;SDS011;25188;51.958;5.842;2023-11-19T13:35:17;14.60;;;3.83;;
39020;SDS011;25188;51.958;5.842;2023-11-19T13:37:43;16.52;;;3.33;;
39020;SDS011;25188;51.958;5.842;2023-11-19T13:40:09;15.65;;;3.13;;
39020;SDS011;25188;51.958;5.842;2023-11-19T13:42:39;22.73;;;4.05;;
39020;SDS011;25188;51.958;5.842;2023-11-19T13:45:06;17.35;;;3.65;;
39020;SDS011;25188;51.958;5.842;2023-11-19T13:47:37;16.67;;;3.58;;
39020;SDS011;25188;51.958;5.842;2023-11-19T13:50:06;26.70;;;4.40;;
39020;SDS011;25188;51.958;5.842;2023-11-19T13:52:39;18.60;;;3.35;;
39020;SDS011;25188;51.958;5.842;2023-11-19T13:55:07;25.23;;;3.85;;
39020;SDS011;25188;51.958;5.842;2023-11-19T13:57:36;17.80;;;2.90;;
39020;SDS011;25188;51.958;5.842;2023-11-19T14:00:03;18.45;;;3.85;;
39020;SDS011;25188;51.958;5.842;2023-11-19T14:02:50;23.60;;;3.60;;
39020;SDS011;25188;51.958;5.842;2023-11-19T14:05:17;17.08;;;3.15;;
39020;SDS011;25188;51.958;5.842;2023-11-19T14:07:43;16.50;;;3.28;;
39020;SDS011;25188;51.958;5.842;2023-11-19T14:10:09;22.50;;;3.45;;
39020;SDS011;25188;51.958;5.842;2023-11-19T14:12:36;26.40;;;3.42;;
39020;SDS011;25188;51.958;5.842;2023-11-19T14:15:03;22.52;;;4.65;;
39020;SDS011;25188;51.958;5.842;2023-11-19T14:17:31;22.63;;;4.57;;
39020;SDS011;25188;51.958;5.842;2023-11-19T14:19:57;15.35;;;3.22;;
39020;SDS011;25188;51.958;5.842;2023-11-19T14:22:23;19.88;;;3.13;;
39020;SDS011;25188;51.958;5.842;2023-11-19T14:24:49;23.52;;;3.65;;
39020;SDS011;25188;51.958;5.842;2023-11-19T14:27:15;23.10;;;4.78;;
39020;SDS011;25188;51.958;5.842;2023-11-19T14:29:42;16.27;;;3.17;;
39020;SDS011;25188;51.958;5.842;2023-11-19T14:32:12;21.08;;;4.00;;
39020;SDS011;25188;51.958;5.842;2023-11-19T14:34:38;21.73;;;3.78;;
39020;SDS011;25188;51.958;5.842;2023-11-19T14:37:03;21.42;;;4.10;;
39020;SDS011;25188;51.958;5.842;2023-11-19T14:39:29;21.13;;;3.70;;
39020;SDS011;25188;51.958;5.842;2023-11-19T14:41:56;21.17;;;3.97;;
39020;SDS011;25188;51.958;5.842;2023-11-19T14:44:29;19.10;;;3.65;;
39020;SDS011;25188;51.958;5.842;2023-11-19T14:46:55;27.23;;;3.78;;
39020;SDS011;25188;51.958;5.842;2023-11-19T14:49:21;19.30;;;4.07;;
39020;SDS011;25188;51.958;5.842;2023-11-19T14:51:46;20.88;;;3.70;;
39020;SDS011;25188;51.958;5.842;2023-11-19T14:54:12;22.38;;;2.80;;
39020;SDS011;25188;51.958;5.842;2023-11-19T14:56:39;22.42;;;3.85;;
39020;SDS011;25188;51.958;5.842;2023-11-19T14:59:05;19.45;;;3.63;;
39020;SDS011;25188;51.958;5.842;2023-11-19T15:01:32;13.63;;;2.78;;
39020;SDS011;25188;51.958;5.842;2023-11-19T15:03:58;20.45;;;3.90;;
39020;SDS011;25188;51.958;5.842;2023-11-19T15:06:24;22.63;;;4.07;;
39020;SDS011;25188;51.958;5.842;2023-11-19T15:08:52;27.60;;;4.15;;
39020;SDS011;25188;51.958;5.842;2023-11-19T15:11:17;25.15;;;4.15;;